Anson, Texas
Current Conditions -  °F | °C
As of 1:58 PM on Tuesday 21 Oct 2014 (Local Time) from KDYS Reporting Station
Clear Clear  
Wind Chill: 26°   Ceiling: Unl
Heat Index: 26°   Visibility: 10mi
Dew Point: 12°   Wind: 8mph
Humidity: 40%   Direction: 160°SSE
Pressure: 30.05"   Gusts: NA
Location:  32.76°N, 99.9°W
Report Text: KDYS 211858Z AUTO 16007KT 130V190 10SM CLR 26/12 A3005 RMK AO2 SLP143 T02610115
Loading
Personal Weather Stations






























Interactive Weather Map
Tropical Storm Tracking
New forecast layout! Learn more

10-Day Weather Forecast

Advertisements
Track Severe Weather on mobile